Time;durP1;ratioP1;P1;durP2;ratioP2;P2;SDS_P1;SDS_P2;PMS_P1;PMS_P2;Temp;Humidity;BMP_temperature;BMP_pressure;BME280_temperature;BME280_humidity;BME280_pressure;Samples;Min_cycle;Max_cycle;Signal;HPM_P1;HPM_P2
2022/06/30 00:01:33;;;;;;;10.10;9.13;;;22.90;83.80;;;;;;6106218;23;20146;-90
2022/06/30 00:04:00;;;;;;;10.27;9.27;;;22.80;83.80;;;;;;6130810;23;20131;-91
2022/06/30 00:06:25;;;;;;;10.45;9.45;;;22.90;83.90;;;;;;6106044;23;20170;-90
2022/06/30 00:08:52;;;;;;;10.65;9.65;;;23.00;84.00;;;;;;6106277;23;20186;-89
2022/06/30 00:11:19;;;;;;;10.00;9.10;;;22.90;84.00;;;;;;6106593;23;20158;-91
2022/06/30 00:13:47;;;;;;;10.32;9.32;;;22.90;84.00;;;;;;6130728;23;20132;-90
2022/06/30 00:16:14;;;;;;;9.90;8.90;;;22.90;84.00;;;;;;6130292;23;20189;-90
2022/06/30 00:18:41;;;;;;;10.00;9.00;;;22.90;84.00;;;;;;6107120;23;20475;-90
2022/06/30 00:21:09;;;;;;;9.85;8.88;;;22.90;84.10;;;;;;6130296;23;20158;-89
2022/06/30 00:23:51;;;;;;;9.85;8.95;;;22.80;84.00;;;;;;6106160;23;20148;-90
2022/06/30 00:26:20;;;;;;;10.43;9.43;;;22.90;84.00;;;;;;6130508;23;20178;-90
2022/06/30 00:28:47;;;;;;;10.00;9.00;;;22.90;84.20;;;;;;6130778;23;20178;-91
2022/06/30 00:31:13;;;;;;;10.00;9.10;;;22.90;83.90;;;;;;6130278;23;20202;-90
2022/06/30 00:33:40;;;;;;;10.73;9.73;;;22.90;84.10;;;;;;6106110;23;20152;-91
2022/06/30 00:36:06;;;;;;;9.88;8.98;;;22.90;84.00;;;;;;6131416;23;20143;-91
2022/06/30 00:38:38;;;;;;;10.10;9.18;;;22.90;84.10;;;;;;6106117;23;20163;-91
2022/06/30 00:41:05;;;;;;;10.40;9.07;;;22.90;84.10;;;;;;6131359;23;20143;-91
2022/06/30 00:43:31;;;;;;;10.40;9.40;;;22.90;84.20;;;;;;6130974;23;20135;-89
2022/06/30 00:45:57;;;;;;;10.57;9.57;;;22.90;84.30;;;;;;6105755;23;20139;-90
2022/06/30 00:48:26;;;;;;;10.70;9.70;;;22.90;84.20;;;;;;6105696;23;20254;-89
2022/06/30 00:50:54;;;;;;;10.50;9.50;;;22.90;84.20;;;;;;6106861;23;20151;-91
2022/06/30 00:53:21;;;;;;;10.13;9.10;;;22.90;84.30;;;;;;6106956;23;20193;-91
2022/06/30 00:55:47;;;;;;;10.52;9.52;;;22.90;84.50;;;;;;6106976;23;20144;-90
2022/06/30 00:58:15;;;;;;;9.98;9.07;;;22.90;84.20;;;;;;6130856;23;20144;-91
2022/06/30 01:00:42;;;;;;;10.80;9.70;;;22.90;84.20;;;;;;6109034;23;20143;-89
2022/06/30 01:03:08;;;;;;;10.70;9.70;;;22.90;84.30;;;;;;6109010;23;20183;-90
2022/06/30 01:05:35;;;;;;;10.30;9.30;;;22.90;84.30;;;;;;6133167;23;20131;-89
2022/06/30 01:08:03;;;;;;;10.17;9.27;;;22.90;84.30;;;;;;6109381;23;20234;-90
2022/06/30 01:13:10;;;;;;;10.82;9.82;;;22.90;84.20;;;;;;6133306;23;20215;-92
2022/06/30 01:15:36;;;;;;;10.63;9.52;;;22.90;84.30;;;;;;6130141;23;20222;-90
2022/06/30 01:18:03;;;;;;;11.18;10.07;;;22.90;84.30;;;;;;6106801;23;20159;-90
2022/06/30 01:20:32;;;;;;;10.57;9.57;;;22.90;84.40;;;;;;6154960;23;20463;-90
2022/06/30 01:22:59;;;;;;;10.35;9.43;;;22.80;84.40;;;;;;6130471;23;20132;-90
2022/06/30 01:25:26;;;;;;;11.23;10.13;;;22.90;84.20;;;;;;6130069;23;20132;-90
2022/06/30 01:27:55;;;;;;;10.98;9.88;;;22.90;84.40;;;;;;6130165;23;20143;-89
2022/06/30 01:30:21;;;;;;;10.63;9.63;;;22.80;84.50;;;;;;6129875;23;20258;-89
2022/06/30 01:32:48;;;;;;;10.52;9.52;;;22.80;84.50;;;;;;6106353;23;20147;-91
2022/06/30 01:35:14;;;;;;;10.95;9.85;;;22.80;84.50;;;;;;6154914;23;20606;-90
2022/06/30 01:37:52;;;;;;;10.52;9.52;;;22.80;84.50;;;;;;6108011;23;20151;-90
2022/06/30 01:40:20;;;;;;;10.57;9.57;;;22.80;84.30;;;;;;6109563;23;20171;-90
2022/06/30 01:42:45;;;;;;;10.70;9.70;;;22.80;84.50;;;;;;6108350;23;20148;-89
2022/06/30 01:45:12;;;;;;;10.80;9.77;;;22.80;84.50;;;;;;6132419;23;20227;-90
2022/06/30 01:47:38;;;;;;;11.30;10.20;;;22.80;84.50;;;;;;6107357;23;20228;-89
2022/06/30 01:50:05;;;;;;;11.30;10.20;;;22.80;84.50;;;;;;6107692;23;20207;-89
2022/06/30 01:52:31;;;;;;;10.65;9.60;;;22.80;84.60;;;;;;6107335;23;20156;-90
2022/06/30 01:54:56;;;;;;;10.43;9.52;;;22.90;84.60;;;;;;6108207;23;20178;-90
2022/06/30 01:57:24;;;;;;;11.00;9.90;;;22.80;84.60;;;;;;6107664;23;20154;-89
2022/06/30 01:59:54;;;;;;;10.93;9.85;;;22.90;84.70;;;;;;6108736;23;20579;-89
2022/06/30 02:02:21;;;;;;;10.93;9.82;;;22.80;84.60;;;;;;6131599;23;20151;-90
2022/06/30 02:04:50;;;;;;;10.85;9.77;;;22.80;84.70;;;;;;6107038;23;20494;-90
2022/06/30 02:07:17;;;;;;;11.73;10.63;;;22.80;84.60;;;;;;6131809;23;20583;-91
2022/06/30 02:09:44;;;;;;;10.82;9.82;;;22.80;84.90;;;;;;6108012;23;20171;-90
2022/06/30 02:14:53;;;;;;;10.40;9.40;;;22.80;84.70;;;;;;6134848;23;20210;-89
2022/06/30 02:17:21;;;;;;;10.95;9.95;;;22.80;84.60;;;;;;6131524;23;20206;-90
2022/06/30 02:19:49;;;;;;;10.38;9.38;;;22.80;84.70;;;;;;6107296;23;20155;-89
2022/06/30 02:22:15;;;;;;;10.73;9.73;;;22.80;85.10;;;;;;6131336;23;20144;-90
2022/06/30 02:24:41;;;;;;;10.98;9.90;;;22.80;84.50;;;;;;6156109;23;20618;-90
2022/06/30 02:27:08;;;;;;;10.20;9.20;;;22.80;84.50;;;;;;6106821;23;20229;-91
2022/06/30 02:29:34;;;;;;;10.77;9.77;;;22.80;84.70;;;;;;6107383;23;20178;-90
2022/06/30 02:32:01;;;;;;;11.63;10.50;;;22.80;85.40;;;;;;6108148;23;20214;-90
2022/06/30 02:34:31;;;;;;;11.60;10.50;;;22.80;84.60;;;;;;6156283;23;20142;-90
2022/06/30 02:36:57;;;;;;;11.35;10.32;;;22.80;84.70;;;;;;6155784;23;20182;-90
2022/06/30 02:39:24;;;;;;;10.88;9.77;;;22.80;84.50;;;;;;6107859;23;20144;-90
2022/06/30 02:41:51;;;;;;;11.10;10.00;;;22.80;84.70;;;;;;6106613;23;20139;-89
2022/06/30 02:44:19;;;;;;;10.77;9.77;;;22.80;85.00;;;;;;6107561;23;20185;-89
2022/06/30 02:46:50;;;;;;;10.73;9.73;;;22.80;84.70;;;;;;6131111;23;20146;-90
2022/06/30 02:49:18;;;;;;;10.50;9.50;;;22.80;84.80;;;;;;6077361;23;20204;-90
2022/06/30 02:51:45;;;;;;;10.50;9.50;;;22.70;84.80;;;;;;6053054;23;20160;-90
2022/06/30 02:54:12;;;;;;;10.55;9.55;;;22.80;84.80;;;;;;6052873;23;20177;-89
2022/06/30 02:56:39;;;;;;;11.55;10.45;;;22.80;84.70;;;;;;6052855;23;20141;-89
2022/06/30 02:59:08;;;;;;;10.73;9.73;;;22.80;84.90;;;;;;6101044;23;20587;-89
2022/06/30 03:01:34;;;;;;;10.95;9.85;;;22.80;84.80;;;;;;6053777;23;20151;-89
2022/06/30 03:04:02;;;;;;;11.75;10.60;;;22.80;84.70;;;;;;6052957;23;20167;-89
2022/06/30 03:06:31;;;;;;;10.85;9.85;;;22.80;84.80;;;;;;6100875;23;20144;-89
2022/06/30 03:08:57;;;;;;;11.50;10.40;;;22.80;84.90;;;;;;6076978;23;20270;-89
2022/06/30 03:11:23;;;;;;;10.68;9.60;;;22.80;84.90;;;;;;6125295;23;20470;-89
2022/06/30 03:13:50;;;;;;;11.02;9.90;;;22.70;85.00;;;;;;6052652;23;20359;-90
2022/06/30 03:16:18;;;;;;;11.50;10.30;;;22.70;85.00;;;;;;6052760;23;20258;-90
2022/06/30 03:18:44;;;;;;;10.27;9.27;;;22.70;84.90;;;;;;6125424;23;20151;-90
2022/06/30 03:21:10;;;;;;;11.38;10.23;;;22.80;85.10;;;;;;6124819;23;20233;-89
2022/06/30 03:23:35;;;;;;;11.02;10.02;;;22.70;84.90;;;;;;6107083;23;20152;-89
2022/06/30 03:26:01;;;;;;;11.32;10.13;;;22.70;85.00;;;;;;6130877;23;20136;-90
2022/06/30 03:28:27;;;;;;;11.15;10.05;;;22.70;85.00;;;;;;6106259;23;20182;-90
2022/06/30 03:30:54;;;;;;;10.82;9.80;;;22.70;85.00;;;;;;6106272;23;20153;-90
2022/06/30 03:33:21;;;;;;;11.35;10.25;;;22.70;85.00;;;;;;6106326;23;20147;-90
2022/06/30 03:35:47;;;;;;;10.90;9.88;;;22.70;85.00;;;;;;6130933;23;20132;-89
2022/06/30 03:38:14;;;;;;;11.50;10.40;;;22.70;84.90;;;;;;6131004;23;20186;-90
2022/06/30 03:40:41;;;;;;;10.85;9.82;;;22.70;84.90;;;;;;6107543;23;20151;-90
2022/06/30 03:43:07;;;;;;;11.05;9.95;;;22.70;84.90;;;;;;6106526;23;20143;-90
2022/06/30 03:45:33;;;;;;;10.88;9.77;;;22.70;84.90;;;;;;6107089;23;20147;-90
2022/06/30 03:48:02;;;;;;;10.93;9.82;;;22.70;85.00;;;;;;6106667;23;20206;-90
2022/06/30 03:50:30;;;;;;;12.40;11.18;;;22.70;84.90;;;;;;6106229;23;20182;-90
2022/06/30 03:52:59;;;;;;;11.40;10.30;;;22.70;85.10;;;;;;6107684;23;20154;-90
2022/06/30 03:55:26;;;;;;;11.02;10.02;;;22.70;84.90;;;;;;6155624;23;20136;-89
2022/06/30 03:57:52;;;;;;;11.73;10.57;;;22.70;84.90;;;;;;6106126;23;20150;-90
2022/06/30 04:00:18;;;;;;;11.32;10.23;;;22.70;85.10;;;;;;6130594;23;20142;-89
2022/06/30 04:02:44;;;;;;;11.43;10.23;;;22.70;85.00;;;;;;6106291;23;20237;-88
2022/06/30 04:05:17;;;;;;;11.10;10.10;;;22.70;84.90;;;;;;6106592;23;20151;-91
2022/06/30 04:07:43;;;;;;;11.80;10.65;;;22.70;85.10;;;;;;6131027;23;20575;-89
2022/06/30 04:10:11;;;;;;;10.73;9.73;;;22.80;84.80;;;;;;6107476;23;20183;-90
2022/06/30 04:12:38;;;;;;;11.15;10.05;;;22.70;85.80;;;;;;6106291;23;20155;-90
2022/06/30 04:15:04;;;;;;;11.75;10.65;;;22.70;85.00;;;;;;6106378;23;20218;-89
2022/06/30 04:17:33;;;;;;;11.35;10.30;;;22.70;84.90;;;;;;6130723;23;20186;-89
2022/06/30 04:20:01;;;;;;;11.63;10.52;;;22.70;85.00;;;;;;6107038;23;20582;-90
2022/06/30 04:22:27;;;;;;;11.25;10.15;;;22.70;84.70;;;;;;6106180;23;20205;-90
2022/06/30 04:24:54;;;;;;;11.20;10.10;;;22.70;85.00;;;;;;6130989;23;20559;-89
2022/06/30 04:27:20;;;;;;;11.27;10.18;;;22.70;85.10;;;;;;6106533;23;20486;-91
2022/06/30 04:29:47;;;;;;;12.32;11.13;;;22.70;85.10;;;;;;6106610;23;20171;-90
2022/06/30 04:34:55;;;;;;;11.85;10.68;;;22.70;85.20;;;;;;6132758;23;20511;-90
2022/06/30 04:37:22;;;;;;;12.05;10.85;;;22.70;85.20;;;;;;6130883;23;20195;-90
2022/06/30 04:41:23;;;;;;;11.07;9.98;;;22.70;85.30;;;;;;6105971;23;20226;-91
2022/06/30 04:42:36;;;;;;;11.13;10.02;;;22.60;85.40;;;;;;6134207;23;20147;-89
2022/06/30 04:45:02;;;;;;;12.38;11.18;;;22.70;86.30;;;;;;6130370;23;20222;-90
2022/06/30 04:47:29;;;;;;;11.55;10.35;;;22.60;85.70;;;;;;6106686;23;20187;-89
2022/06/30 04:49:56;;;;;;;11.85;10.32;;;22.60;85.70;;;;;;6130583;23;20213;-89
2022/06/30 04:52:22;;;;;;;11.60;10.40;;;22.60;85.70;;;;;;6105790;23;20148;-89
2022/06/30 04:54:48;;;;;;;11.50;10.40;;;22.60;85.80;;;;;;6106079;23;20143;-89
2022/06/30 04:57:13;;;;;;;11.45;10.25;;;22.50;85.70;;;;;;6130599;23;20226;-90
2022/06/30 04:59:40;;;;;;;12.52;11.23;;;22.70;85.50;;;;;;6106236;23;20233;-90
2022/06/30 05:02:08;;;;;;;12.23;11.02;;;22.70;85.80;;;;;;6106122;23;20136;-89
2022/06/30 05:04:34;;;;;;;12.88;11.57;;;22.80;86.10;;;;;;6130478;23;20167;-89
2022/06/30 05:07:00;;;;;;;12.20;11.00;;;22.80;85.40;;;;;;6106081;23;20234;-89
2022/06/30 05:09:27;;;;;;;13.40;11.85;;;22.80;85.50;;;;;;6106267;23;20203;-89
2022/06/30 05:11:53;;;;;;;12.48;11.18;;;22.90;85.80;;;;;;6132132;23;20151;-90
2022/06/30 05:14:19;;;;;;;12.93;11.52;;;22.90;85.80;;;;;;6131978;23;20140;-90
2022/06/30 05:16:46;;;;;;;13.10;11.80;;;22.90;85.80;;;;;;6113191;23;20139;-89
2022/06/30 05:19:12;;;;;;;13.82;12.43;;;22.90;86.20;;;;;;6113305;23;20232;-90
2022/06/30 05:21:38;;;;;;;13.50;12.10;;;22.90;86.40;;;;;;6136753;23;20138;-88
2022/06/30 05:26:44;;;;;;;13.77;12.25;;;23.00;86.60;;;;;;6142028;23;20138;-90
2022/06/30 05:29:11;;;;;;;14.45;12.48;;;23.00;86.30;;;;;;6112375;23;20171;-89
2022/06/30 05:31:37;;;;;;;14.57;12.98;;;22.90;86.70;;;;;;6137163;23;20135;-89
2022/06/30 05:34:02;;;;;;;14.68;13.13;;;22.90;87.30;;;;;;6137253;23;20138;-90
2022/06/30 05:36:28;;;;;;;14.20;12.70;;;22.90;87.10;;;;;;6113632;23;20143;-89
2022/06/30 05:38:54;;;;;;;14.77;13.18;;;22.90;87.70;;;;;;6137200;23;20230;-90
2022/06/30 05:41:20;;;;;;;15.13;13.32;;;22.90;87.40;;;;;;6136769;23;20127;-89
2022/06/30 05:43:47;;;;;;;14.65;13.00;;;22.90;87.80;;;;;;6136717;23;20182;-89
2022/06/30 05:46:13;;;;;;;15.57;13.77;;;22.90;88.10;;;;;;6136850;23;20134;-89
2022/06/30 05:48:39;;;;;;;15.63;13.25;;;22.90;87.80;;;;;;6111863;23;20163;-91
2022/06/30 05:51:05;;;;;;;13.80;12.30;;;23.00;88.20;;;;;;6161090;23;20169;-89
2022/06/30 05:53:33;;;;;;;14.93;13.18;;;23.00;87.20;;;;;;6137019;23;20185;-91
2022/06/30 05:55:59;;;;;;;14.88;13.27;;;23.10;86.70;;;;;;6136732;23;20123;-90
2022/06/30 05:58:25;;;;;;;15.70;13.35;;;23.00;86.50;;;;;;6161829;23;20189;-90
2022/06/30 06:00:50;;;;;;;15.00;13.30;;;23.00;86.60;;;;;;6112958;23;20135;-89
2022/06/30 06:03:17;;;;;;;14.90;13.15;;;23.00;86.70;;;;;;6112169;23;20142;-90
2022/06/30 06:05:44;;;;;;;15.00;12.77;;;23.00;86.70;;;;;;6136992;23;20650;-89
2022/06/30 06:08:12;;;;;;;14.10;12.65;;;23.10;86.50;;;;;;6136783;23;20209;-90
2022/06/30 06:10:39;;;;;;;15.52;13.27;;;23.10;86.00;;;;;;6136911;23;20625;-89
2022/06/30 06:13:06;;;;;;;15.18;13.57;;;23.20;86.10;;;;;;6112878;23;20139;-88
2022/06/30 06:15:31;;;;;;;14.55;13.05;;;23.20;86.00;;;;;;6106874;23;20199;-89
2022/06/30 06:17:58;;;;;;;14.18;12.68;;;23.10;86.60;;;;;;6107811;23;20162;-89
2022/06/30 06:20:24;;;;;;;14.70;13.10;;;23.10;85.90;;;;;;6107869;23;20150;-90
2022/06/30 06:22:52;;;;;;;15.45;13.00;;;23.10;86.00;;;;;;6109151;23;20187;-90
2022/06/30 06:25:18;;;;;;;14.25;12.75;;;23.10;86.40;;;;;;6111331;23;20522;-89
2022/06/30 06:29:05;;;;;;;14.25;12.75;;;23.10;86.30;;;;;;6111459;23;20155;-89
2022/06/30 06:30:29;;;;;;;15.20;13.57;;;23.10;86.90;;;;;;6160799;23;20193;-89
2022/06/30 06:33:05;;;;;;;;;;;;;;;;;;;;;
2022/06/30 06:35:49;;;;;;;15.30;13.70;;;23.10;86.30;;;;;;6104658;23;20182;-92
2022/06/30 06:38:16;;;;;;;16.08;14.32;;;23.10;86.50;;;;;;6101647;23;20179;-89
2022/06/30 06:41:08;;;;;;;14.50;13.00;;;23.10;86.00;;;;;;6077838;23;20152;-90
2022/06/30 06:43:46;;;;;;;15.70;14.00;;;23.20;86.20;;;;;;6050397;23;20644;-92
2022/06/30 12:08:19;;;;;;;19.70;14.63;;;23.80;83.30;;;;;;6188437;23;20444;-89
2022/06/30 12:11:01;;;;;;;;;;;;;;;;;;;;;
2022/06/30 12:13:31;;;;;;;18.35;14.82;;;23.80;82.80;;;;;;6079004;23;20182;-89
2022/06/30 12:16:00;;;;;;;17.35;14.40;;;23.80;83.10;;;;;;6035715;23;20153;-88
2022/06/30 12:18:26;;;;;;;17.60;14.45;;;23.80;84.00;;;;;;6037817;23;20153;-88
2022/06/30 12:21:13;;;;;;;16.30;14.55;;;23.80;83.20;;;;;;6002880;23;20150;-89
2022/06/30 12:24:04;;;;;;;15.40;13.65;;;23.70;83.30;;;;;;6050727;23;20486;-88
2022/06/30 12:26:33;;;;;;;16.02;13.98;;;23.70;83.00;;;;;;6026884;23;20181;-89
2022/06/30 12:29:15;;;;;;;15.27;13.68;;;23.80;83.00;;;;;;6050967;23;20182;-88
2022/06/30 12:31:41;;;;;;;15.48;13.80;;;23.90;82.90;;;;;;6078864;23;20177;-90
2022/06/30 12:34:50;;;;;;;14.70;13.20;;;23.80;82.70;;;;;;6025929;23;20154;-88
2022/06/30 12:37:42;;;;;;;17.55;14.45;;;23.90;82.50;;;;;;6025315;23;20238;-89
2022/06/30 12:40:49;;;;;;;16.02;14.27;;;23.90;82.80;;;;;;5939608;24;20167;-92
2022/06/30 12:43:24;;;;;;;17.40;14.35;;;23.90;82.80;;;;;;5927249;24;20159;-91
2022/06/30 12:46:09;;;;;;;15.68;13.95;;;23.90;82.90;;;;;;5940455;24;20160;-91
2022/06/30 12:48:52;;;;;;;17.08;14.45;;;23.90;82.90;;;;;;5908798;24;20160;-90
2022/06/30 12:51:31;;;;;;;15.77;14.05;;;23.90;82.70;;;;;;5890356;24;20200;-89
2022/06/30 12:54:07;;;;;;;16.40;14.18;;;23.90;82.60;;;;;;5928727;24;20163;-90
2022/06/30 12:56:35;;;;;;;16.33;14.02;;;23.90;82.60;;;;;;5928866;24;20160;-89
2022/06/30 12:59:31;;;;;;;15.60;13.90;;;23.90;82.90;;;;;;5931427;24;20160;-90
2022/06/30 13:02:14;;;;;;;15.30;13.63;;;23.90;82.50;;;;;;5970976;23;20159;-91
2022/06/30 13:04:52;;;;;;;16.90;14.82;;;23.90;82.60;;;;;;5998418;23;20177;-90
2022/06/30 13:07:20;;;;;;;16.17;14.40;;;23.90;82.80;;;;;;5949646;24;20647;-91
2022/06/30 13:24:10;;;;;;;;;;;;;;;;;;;;;
2022/06/30 16:50:41;;;;;;;15.73;14.02;;;24.50;81.80;;;;;;5764079;24;20184;-91
2022/06/30 16:57:20;;;;;;;15.38;13.65;;;24.40;81.70;;;;;;5714004;25;20165;-90
2022/06/30 17:00:35;;;;;;;15.40;13.63;;;24.30;81.90;;;;;;5714456;25;20236;-91
2022/06/30 17:50:10;;;;;;;;;;;;;;;;;;;;;
2022/06/30 18:18:56;;;;;;;;;;;;;;;;;;;;;
